Rices Crossing, Texas
Current Conditions -  °F | °C
As of 1:58 AM on Friday 28 Nov 2014 (Local Time) from KGRK Reporting Station
Clear Clear  
Wind Chill: 37°   Ceiling: Unl
Heat Index: 41°   Visibility: 10mi
Dew Point: 32°   Wind: 6mph
Humidity: 69%   Direction: 170°S
Pressure: 30.34"   Gusts: NA
Location:  30.5793°N, 97.5096°W
Report Text: KGRK 280758Z AUTO 17005KT 10SM CLR 05/00 A3034 RMK AO2 SLP276 T00501002
Loading
Personal Weather Stations






























Interactive Weather Map New forecast layout! Learn more

10-Day Weather Forecast

Advertisements
Track Severe Weather on mobile